Terminal Aerodrome Forecast
Issued by NWS

Home | Current Version | Previous Version | Text Only | Print | Product List | Glossary On
Versions: 1 2 3 4 5 6 7 8 9 10 11 12
000
FTUS42 TJSJ 251740
TAFJSJ
TAF
TJSJ 251740Z 2518/2618 06015G25KT P6SM FEW030 FEW060
     FM252300 09005KT P6SM FEW060
     FM261300 07015G21KT P6SM FEW030 FEW060=

USA.gov is the U.S. government's official web portal to all federal, state and local government web resources and services.